^^
Historische Daten
 
Tage Summe für Oktober 21, 2017 Einheit:  Metric    English   Beide
« vorheriger Tag
nächster Tag »
Tage Wochen Monate Jahre Benutzerdefiniert
  Aktuell: Max: Min: Durchschnitt:
Temperatur: 12.5 °C 14.9 °C 11.1 °C 12.6 °C
Tau Punkt: 11.7 °C 11.7 °C 7.4 °C 9.3 °C
Luftfeuchte: 95% 95% 72% 81%
Windgeschwindigkeit: 11.1km/h 18.5km/h 1.9km/h 7.9km/h
Wind Böen: 11.1km/h 18.5km/h - -
WindSE - - South
Luftdruck: 1011.1 hPa 1013.4 hPa 1011.1 hPa -
Niederschlag: 2.3 mm      
Historical Graphs
 
 
Tabellendaten für Oktober 21, 2017
Zeit Temperatur Tau Punkt Luftdruck Wind Windgeschwindigkeit Wind Böen Luftfeuchte Regen Rate (Stunde) Conditions
00:00 13.7 °C 8.8 °C 1012.8 hPa SW 18.5 km/h 18.5 km/h 72% 0.0 mm -RA
00:05 13.7 °C 8.7 °C 1013.1 hPa SW 13.0 km/h 13.0 km/h 72% 0.0 mm -RA
00:10 13.7 °C 8.9 °C 1013.1 hPa SW 9.3 km/h 9.3 km/h 73% 0.0 mm -RA
00:15 13.7 °C 8.9 °C 1013.1 hPa SW 13.0 km/h 13.0 km/h 73% 0.0 mm -RA
00:20 13.7 °C 8.7 °C 1013.1 hPa SW 9.3 km/h 9.3 km/h 72% 0.0 mm -RA
00:25 13.6 °C 8.7 °C 1013.1 hPa SSW 9.3 km/h 9.3 km/h 72% 0.0 mm -RA
00:30 13.6 °C 8.7 °C 1013.1 hPa WSW 7.4 km/h 7.4 km/h 72% 0.0 mm -RA
00:35 13.6 °C 8.7 °C 1013.1 hPa SSW 8.0 km/h 8.0 km/h 72% 0.0 mm -RA
00:40 13.6 °C 8.8 °C 1013.1 hPa SSW 7.4 km/h 7.4 km/h 73% 0.0 mm -RA
00:45 13.6 °C 8.7 °C 1013.1 hPa SSW 8.0 km/h 8.0 km/h 72% 0.0 mm -RA
00:50 13.6 °C 8.8 °C 1013.1 hPa SSW 5.6 km/h   73% 0.0 mm -RA
00:55 13.6 °C 8.8 °C 1013.1 hPa SW 9.7 km/h 9.7 km/h 73% 0.0 mm -RA
01:00 13.5 °C 8.8 °C 1013.1 hPa SW 7.4 km/h 7.4 km/h 73% 0.0 mm -RA
01:05 13.5 °C 8.8 °C 1013.1 hPa South 11.1 km/h 11.1 km/h 73% 0.0 mm -RA
01:10 13.4 °C 8.7 °C 1013.1 hPa South 6.4 km/h 6.4 km/h 73% 0.0 mm -RA
01:15 13.4 °C 8.7 °C 1013.1 hPa SSW 1.9 km/h 1.9 km/h 73% 0.0 mm -RA
01:20 13.3 °C 8.8 °C 1013.1 hPa SSW 4.8 km/h 4.8 km/h 74% 0.0 mm -RA
01:25 13.3 °C 8.8 °C 1013.1 hPa SSW 3.7 km/h 3.7 km/h 74% 0.0 mm -RA
01:30 13.3 °C 8.7 °C 1013.1 hPa SSE 9.3 km/h 9.3 km/h 74% 0.0 mm -RA
01:35 13.2 °C 8.7 °C 1013.1 hPa SSW 7.4 km/h 7.4 km/h 74% 0.0 mm -RA
01:40 13.2 °C 8.7 °C 1013.1 hPa South 5.6 km/h 5.6 km/h 74% 0.0 mm -RA
01:45 13.2 °C 8.6 °C 1013.1 hPa South 5.6 km/h 5.6 km/h 74% 0.0 mm -RA
01:50 13.2 °C 8.6 °C 1013.1 hPa South 8.0 km/h 8.0 km/h 74% 0.0 mm -RA
01:55 13.2 °C 8.6 °C 1013.1 hPa South 5.6 km/h 5.6 km/h 74% 0.0 mm -RA
02:00 13.2 °C 8.6 °C 1013.1 hPa SSW 5.6 km/h 5.6 km/h 74% 0.0 mm -RA
02:05 13.1 °C 8.6 °C 1013.1 hPa SSW 9.7 km/h 9.7 km/h 74% 0.0 mm -RA
02:10 13.1 °C 8.6 °C 1013.1 hPa South 5.6 km/h 5.6 km/h 74% 0.0 mm -RA
02:15 13.1 °C 8.5 °C 1013.1 hPa SSW 5.6 km/h 5.6 km/h 74% 0.0 mm -RA
02:20 13.1 °C 8.5 °C 1013.1 hPa SSW 11.1 km/h 11.1 km/h 74% 0.0 mm -RA
02:25 13.0 °C 8.4 °C 1013.1 hPa South 5.6 km/h 5.6 km/h 74% 0.0 mm -RA
02:30 12.9 °C 8.4 °C 1013.1 hPa SSW 7.4 km/h 7.4 km/h 74% 0.0 mm -RA
02:35 12.9 °C 8.6 °C 1013.1 hPa SSW 9.3 km/h 9.3 km/h 75% 0.0 mm -RA
02:40 12.9 °C 8.6 °C 1013.1 hPa SW 9.7 km/h 9.7 km/h 75% 0.0 mm -RA
02:45 12.8 °C 8.5 °C 1013.1 hPa SW 11.1 km/h 11.1 km/h 75% 0.0 mm -RA
02:50 12.8 °C 8.5 °C 1013.1 hPa SSW 9.7 km/h 9.7 km/h 75% 0.0 mm -RA
02:55 12.7 °C 8.4 °C 1013.1 hPa South 7.4 km/h 7.4 km/h 75% 0.0 mm -RA
03:00 12.7 °C 8.4 °C 1013.1 hPa SSW 9.7 km/h 9.7 km/h 75% 0.0 mm -RA
03:05 12.7 °C 8.3 °C 1013.1 hPa South 7.4 km/h 7.4 km/h 75% 0.0 mm -RA
03:10 12.6 °C 8.3 °C 1013.1 hPa SSW 11.1 km/h 11.1 km/h 75% 0.0 mm -RA
03:15 12.6 °C 8.3 °C 1013.1 hPa South 8.0 km/h 8.0 km/h 75% 0.0 mm -RA
03:20 12.6 °C 8.2 °C 1013.1 hPa SSW 14.8 km/h 14.8 km/h 75% 0.0 mm -RA
03:25 12.6 °C 8.4 °C 1013.1 hPa SW 9.7 km/h 9.7 km/h 76% 0.0 mm -RA
03:30 12.5 °C 8.4 °C 1013.1 hPa SSW 13.0 km/h 13.0 km/h 76% 0.0 mm -RA
03:35 12.5 °C 8.4 °C 1013.1 hPa South 7.4 km/h 7.4 km/h 76% 0.0 mm -RA
03:40 12.4 °C 8.3 °C 1013.1 hPa South 9.3 km/h 9.3 km/h 76% 0.0 mm -RA
03:45 12.4 °C 8.3 °C 1013.1 hPa South 5.6 km/h 5.6 km/h 76% 0.0 mm -RA
03:50 12.4 °C 8.3 °C 1013.1 hPa South 7.4 km/h 7.4 km/h 76% 0.0 mm -RA
03:55 12.4 °C 8.3 °C 1013.1 hPa SSW 5.6 km/h 5.6 km/h 76% 0.0 mm -RA
04:00 12.4 °C 8.3 °C 1013.1 hPa SSW 7.4 km/h 7.4 km/h 76% 0.0 mm -RA
04:05 12.4 °C 8.3 °C 1013.1 hPa South 5.6 km/h 5.6 km/h 76% 0.0 mm -RA
04:10 12.4 °C 8.3 °C 1013.1 hPa South 16.7 km/h 16.7 km/h 76% 0.0 mm -RA
04:15 12.3 °C 8.2 °C 1013.1 hPa SSW 14.5 km/h 14.5 km/h 76% 0.0 mm -RA
04:20 12.3 °C 8.2 °C 1013.1 hPa South 13.0 km/h 13.0 km/h 76% 0.0 mm -RA
04:25 12.2 °C 8.3 °C 1013.1 hPa South 9.3 km/h 9.3 km/h 77% 0.0 mm -RA
04:30 12.2 °C 8.3 °C 1013.1 hPa SW 18.5 km/h 18.5 km/h 77% 0.0 mm -RA
04:35 12.1 °C 8.2 °C 1013.1 hPa SSW 9.3 km/h 9.3 km/h 77% 0.0 mm -RA
04:40 12.0 °C 8.1 °C 1013.1 hPa South 11.1 km/h 11.1 km/h 77% 0.0 mm -RA
04:45 11.9 °C 8.2 °C 1013.1 hPa South 7.4 km/h 7.4 km/h 78% 0.0 mm -RA
04:50 11.8 °C 8.1 °C 1013.1 hPa South 4.8 km/h 4.8 km/h 78% 0.0 mm -RA
05:00 11.6 °C 8.1 °C 1012.8 hPa South 1.9 km/h 1.9 km/h 79% 0.0 mm -RA
05:05 11.5 °C 8.0 °C 1012.8 hPa South 7.4 km/h 7.4 km/h 79% 0.0 mm -RA
05:10 11.4 °C 7.9 °C 1012.8 hPa SSE 5.6 km/h 5.6 km/h 79% 0.0 mm -RA
05:15 11.3 °C 8.0 °C 1012.8 hPa South 3.7 km/h 3.7 km/h 80% 0.0 mm -RA
05:19 11.3 °C 7.9 °C 1012.8 hPa South 5.6 km/h 5.6 km/h 80% 0.0 mm -RA
05:20 11.2 °C 7.9 °C 1013.1 hPa South 5.6 km/h 5.6 km/h 80% 0.0 mm -RA
05:21 11.2 °C 7.9 °C 1013.1 hPa South 7.4 km/h 7.4 km/h 80% 0.0 mm -RA
05:25 11.2 °C 7.9 °C 1013.1 hPa South 5.6 km/h 5.6 km/h 80% 0.0 mm -RA
05:27 11.2 °C 7.8 °C 1013.1 hPa SSE 7.4 km/h 7.4 km/h 80% 0.0 mm -RA
05:29 11.2 °C 7.8 °C 1013.1 hPa South 7.4 km/h 7.4 km/h 80% 0.0 mm -RA
05:32 11.2 °C 7.8 °C 1012.8 hPa South 9.3 km/h 9.3 km/h 80% 0.0 mm -RA
05:37 11.2 °C 7.8 °C 1012.8 hPa SSW 5.6 km/h 5.6 km/h 80% 0.0 mm -RA
05:42 11.2 °C 7.8 °C 1013.1 hPa South 8.0 km/h 8.0 km/h 80% 0.0 mm -RA
05:47 11.2 °C 7.9 °C 1013.1 hPa SSW 13.0 km/h 13.0 km/h 80% 0.0 mm -RA
05:52 11.2 °C 7.9 °C 1013.1 hPa SSW 11.1 km/h 11.1 km/h 80% 0.0 mm -RA
05:57 11.3 °C 7.9 °C 1013.1 hPa South 7.4 km/h 7.4 km/h 80% 0.0 mm -RA
06:02 11.3 °C 7.9 °C 1013.1 hPa SSW 5.6 km/h 5.6 km/h 80% 0.0 mm -RA
06:12 11.4 °C 7.9 °C 1013.1 hPa SSW 7.4 km/h 7.4 km/h 79% 0.0 mm -RA
06:17 11.4 °C 7.9 °C 1012.8 hPa SSW 11.1 km/h 11.1 km/h 79% 0.0 mm -RA
06:22 11.4 °C 7.9 °C 1013.1 hPa South 5.6 km/h 5.6 km/h 79% 0.0 mm -RA
06:27 11.4 °C 7.9 °C 1013.1 hPa South 5.6 km/h 5.6 km/h 79% 0.0 mm -RA
06:32 11.4 °C 7.9 °C 1013.1 hPa SW 5.6 km/h 5.6 km/h 79% 0.0 mm -RA
06:37 11.4 °C 7.9 °C 1013.1 hPa SW 9.3 km/h 9.3 km/h 79% 0.0 mm -RA
06:42 11.4 °C 7.9 °C 1013.1 hPa South 7.4 km/h 7.4 km/h 79% 0.0 mm -RA
06:47 11.4 °C 7.9 °C 1012.8 hPa South 6.4 km/h 6.4 km/h 79% 0.0 mm -RA
06:52 11.4 °C 7.7 °C 1012.8 hPa South 5.6 km/h 5.6 km/h 78% 0.0 mm -RA
06:57 11.4 °C 7.7 °C 1012.8 hPa South 5.6 km/h 5.6 km/h 78% 0.0 mm -RA
07:02 11.4 °C 7.9 °C 1012.8 hPa SSW 3.7 km/h 3.7 km/h 79% 0.0 mm -RA
07:07 11.4 °C 7.9 °C 1012.8 hPa SSE 3.7 km/h 3.7 km/h 79% 0.0 mm -RA
07:12 11.4 °C 7.9 °C 1012.8 hPa South 3.7 km/h 3.7 km/h 79% 0.0 mm -RA
07:17 11.3 °C 7.8 °C 1012.8 hPa South 5.6 km/h 5.6 km/h 79% 0.0 mm -RA
07:22 11.3 °C 7.8 °C 1012.8 hPa South 5.6 km/h 5.6 km/h 79% 0.0 mm -RA
07:27 11.3 °C 7.8 °C 1012.8 hPa South 6.4 km/h 6.4 km/h 79% 0.0 mm -RA
07:32 11.3 °C 7.8 °C 1012.8 hPa South 5.6 km/h 5.6 km/h 79% 0.0 mm -RA
07:37 11.3 °C 7.8 °C 1012.8 hPa South 4.8 km/h 4.8 km/h 79% 0.0 mm -RA
07:42 11.3 °C 7.8 °C 1013.1 hPa SSW 9.3 km/h 9.3 km/h 79% 0.0 mm -RA
07:47 11.3 °C 7.8 °C 1013.1 hPa SSW 5.6 km/h 5.6 km/h 79% 0.0 mm -RA
07:52 11.2 °C 7.7 °C 1013.1 hPa South 5.6 km/h 5.6 km/h 79% 0.0 mm -RA
07:57 11.2 °C 7.7 °C 1013.1 hPa South 5.6 km/h 5.6 km/h 79% 0.0 mm -RA
08:02 11.2 °C 7.7 °C 1013.1 hPa South 3.7 km/h 3.7 km/h 79% 0.0 mm -RA
08:07 11.2 °C 7.7 °C 1013.1 hPa South 4.8 km/h 4.8 km/h 79% 0.0 mm -RA
08:12 11.2 °C 7.7 °C 1013.1 hPa South 3.7 km/h 3.7 km/h 79% 0.0 mm -RA
08:22 11.1 °C 7.8 °C 1013.1 hPa South 1.9 km/h 1.9 km/h 80% 0.0 mm -RA
08:27 11.1 °C 7.6 °C 1013.1 hPa South 3.2 km/h 3.2 km/h 79% 0.0 mm -RA
08:32 11.1 °C 7.6 °C 1013.1 hPa SSW 9.3 km/h 9.3 km/h 79% 0.0 mm -RA
08:37 11.1 °C 7.6 °C 1013.4 hPa SSE 7.4 km/h 7.4 km/h 79% 0.0 mm -RA
08:42 11.1 °C 7.6 °C 1013.4 hPa South 6.4 km/h 6.4 km/h 79% 0.0 mm -RA
08:47 11.2 °C 7.7 °C 1013.1 hPa SSW 9.7 km/h 9.7 km/h 79% 0.0 mm -RA
08:52 11.2 °C 7.7 °C 1013.1 hPa South 7.4 km/h 7.4 km/h 79% 0.0 mm -RA
08:57 11.2 °C 7.5 °C 1013.1 hPa South 5.6 km/h 5.6 km/h 78% 0.0 mm -RA
09:02 11.3 °C 7.6 °C 1013.1 hPa South 5.6 km/h 5.6 km/h 78% 0.0 mm -RA
09:07 11.3 °C 7.6 °C 1013.1 hPa South 3.7 km/h 3.7 km/h 78% 0.0 mm -RA
09:12 11.3 °C 7.6 °C 1013.1 hPa South 9.3 km/h 9.3 km/h 78% 0.0 mm -RA
09:14 11.3 °C 7.4 °C 1013.1 hPa SSE 7.4 km/h 7.4 km/h 77% 0.0 mm -RA
09:19 11.4 °C 7.7 °C 1013.4 hPa South 9.3 km/h 9.3 km/h 78% 0.0 mm -RA
09:24 11.4 °C 7.6 °C 1013.4 hPa South 5.6 km/h 5.6 km/h 77% 0.0 mm -RA
09:29 11.4 °C 7.6 °C 1013.4 hPa SSE 5.6 km/h 5.6 km/h 77% 0.0 mm -RA
09:34 11.4 °C 7.6 °C 1013.1 hPa SSE 9.3 km/h 9.3 km/h 77% 0.0 mm -RA
09:39 11.4 °C 7.7 °C 1013.1 hPa SSE 8.0 km/h 8.0 km/h 78% 0.0 mm -RA
09:44 11.4 °C 7.7 °C 1013.1 hPa SSE 9.3 km/h 9.3 km/h 78% 0.0 mm -RA
09:49 11.4 °C 7.7 °C 1013.1 hPa SSE 9.3 km/h 9.3 km/h 78% 0.0 mm -RA
09:54 11.4 °C 7.7 °C 1013.1 hPa SSE 11.1 km/h 11.1 km/h 78% 0.0 mm -RA
09:59 11.4 °C 7.7 °C 1013.1 hPa South 9.3 km/h 9.3 km/h 78% 0.0 mm -RA
10:04 11.6 °C 7.8 °C 1013.1 hPa South 13.0 km/h 13.0 km/h 78% 0.0 mm -RA
10:09 11.6 °C 7.7 °C 1013.1 hPa SSE 7.4 km/h 7.4 km/h 77% 0.0 mm -RA
10:14 11.7 °C 7.8 °C 1013.1 hPa South 5.6 km/h 5.6 km/h 77% 0.0 mm -RA
10:19 11.7 °C 7.8 °C 1013.1 hPa South 5.6 km/h 5.6 km/h 77% 0.0 mm -RA
10:24 11.7 °C 8.0 °C 1013.1 hPa SE 9.3 km/h 9.3 km/h 78% 0.0 mm -RA
10:29 11.8 °C 8.1 °C 1013.1 hPa South 7.4 km/h 7.4 km/h 78% 0.0 mm -RA
10:34 11.8 °C 8.1 °C 1013.1 hPa South 9.3 km/h 9.3 km/h 78% 0.0 mm -RA
10:39 11.9 °C 8.2 °C 1013.1 hPa SSE 7.4 km/h 7.4 km/h 78% 0.0 mm -RA
10:44 11.9 °C 8.2 °C 1013.1 hPa SSE 11.1 km/h 11.1 km/h 78% 0.0 mm -RA
10:49 12.0 °C 8.3 °C 1013.1 hPa SSE 5.6 km/h 5.6 km/h 78% 0.0 mm -RA
10:54 12.1 °C 8.2 °C 1013.1 hPa SSE 5.6 km/h 5.6 km/h 77% 0.0 mm -RA
10:59 12.2 °C 8.3 °C 1013.1 hPa SSE 7.4 km/h 7.4 km/h 77% 0.0 mm -RA
11:04 12.3 °C 8.3 °C 1013.1 hPa ESE 5.6 km/h 5.6 km/h 77% 0.0 mm -RA
11:09 12.4 °C 8.4 °C 1013.1 hPa SSE 5.6 km/h 5.6 km/h 77% 0.0 mm -RA
11:14 12.4 °C 8.5 °C 1013.1 hPa SE 11.1 km/h 11.1 km/h 77% 0.0 mm -RA
11:19 12.6 °C 8.6 °C 1013.1 hPa SSE 5.6 km/h 5.6 km/h 77% 0.0 mm -RA
11:24 12.7 °C 8.7 °C 1013.1 hPa SE 13.0 km/h 13.0 km/h 77% 0.0 mm -RA
11:29 12.8 °C 8.7 °C 1013.1 hPa SE 12.9 km/h 12.9 km/h 76% 0.0 mm -RA
11:34 12.8 °C 8.7 °C 1013.1 hPa SSE 1.9 km/h 1.9 km/h 76% 0.0 mm -RA
11:39 13.1 °C 8.9 °C 1013.1 hPa SSE 8.0 km/h 8.0 km/h 76% 0.0 mm -RA
11:44 13.2 °C 9.1 °C 1012.8 hPa SSE 3.7 km/h 3.7 km/h 76% 0.0 mm -RA
11:49 13.5 °C 9.2 °C 1012.8 hPa SE 3.7 km/h 3.7 km/h 75% 0.0 mm -RA
11:54 13.7 °C 9.4 °C 1012.8 hPa South 7.4 km/h 7.4 km/h 75% 0.0 mm -RA
11:59 13.9 °C 9.4 °C 1012.8 hPa SSW 3.7 km/h 3.7 km/h 74% 0.0 mm -RA
12:04 14.2 °C 9.4 °C 1012.8 hPa South 11.1 km/h 11.1 km/h 73% 0.0 mm -RA
12:09 14.4 °C 9.6 °C 1012.8 hPa South 1.9 km/h 1.9 km/h 73% 0.0 mm -RA
12:14 14.5 °C 9.5 °C 1012.8 hPa SSE 7.4 km/h 7.4 km/h 72% 0.0 mm -RA
12:19 14.4 °C 9.4 °C 1012.4 hPa SSE 14.8 km/h 14.8 km/h 72% 0.0 mm -RA
12:24 14.5 °C 9.5 °C 1012.4 hPa SE 11.3 km/h 11.3 km/h 72% 0.0 mm -RA
12:25 14.5 °C 9.5 °C 1012.4 hPa SE 11.1 km/h 11.1 km/h 72% 0.0 mm -RA
12:30 14.6 °C 9.6 °C 1012.4 hPa SSE 5.6 km/h 5.6 km/h 72% 0.0 mm -RA
12:35 14.4 °C 9.7 °C 1012.4 hPa SE 13.0 km/h 13.0 km/h 73% 0.0 mm -RA
12:40 14.4 °C 9.9 °C 1012.4 hPa SE 3.7 km/h 3.7 km/h 74% 0.0 mm -RA
12:45 14.7 °C 10.1 °C 1012.4 hPa SSE 3.7 km/h 3.7 km/h 74% 0.0 mm -RA
12:50 14.9 °C 10.1 °C 1012.4 hPa SE 3.7 km/h 3.7 km/h 73% 0.0 mm -RA
12:55 14.9 °C 9.9 °C 1012.1 hPa SE 11.1 km/h 11.1 km/h 72% 0.0 mm -RA
13:00 14.9 °C 10.2 °C 1012.1 hPa SE 5.6 km/h 5.6 km/h 73% 0.0 mm -RA
13:05 14.8 °C 10.1 °C 1012.1 hPa SE 5.6 km/h 5.6 km/h 73% 0.0 mm -RA
13:10 14.8 °C 10.0 °C 1012.1 hPa SSE 1.9 km/h 1.9 km/h 73% 0.0 mm -RA
13:15 14.8 °C 10.0 °C 1012.1 hPa SSE 13.0 km/h 13.0 km/h 73% 0.0 mm -RA
13:20 14.7 °C 9.9 °C 1012.1 hPa SE 8.0 km/h 8.0 km/h 73% 0.0 mm -RA
13:25 14.7 °C 10.3 °C 1012.1 hPa SSE 11.3 km/h 11.3 km/h 75% 0.0 mm -RA
13:30 14.8 °C 10.4 °C 1012.1 hPa SSE 5.6 km/h 5.6 km/h 75% 0.0 mm -RA
13:35 14.8 °C 10.7 °C 1012.1 hPa South 5.6 km/h 5.6 km/h 76% 0.0 mm -RA
13:40 14.8 °C 10.8 °C 1012.1 hPa South 6.4 km/h 6.4 km/h 77% 0.0 mm -RA
13:45 14.8 °C 11.1 °C 1011.7 hPa SSW 11.1 km/h 11.1 km/h 78% 0.3 mm -RA
13:50 14.8 °C 11.2 °C 1011.7 hPa SE 7.4 km/h 7.4 km/h 79% 0.3 mm -RA
13:55 14.8 °C 11.3 °C 1011.7 hPa SE 3.7 km/h 3.7 km/h 80% 0.3 mm -RA
14:00 14.7 °C 11.3 °C 1011.7 hPa SE 5.6 km/h 5.6 km/h 80% 0.3 mm -RA
14:05 14.6 °C 11.3 °C 1011.7 hPa SE 5.6 km/h 5.6 km/h 81% 0.3 mm -RA
14:10 14.6 °C 11.3 °C 1011.7 hPa SE 5.6 km/h 5.6 km/h 81% 0.3 mm -RA
14:15 14.5 °C 11.4 °C 1011.7 hPa South 7.4 km/h 7.4 km/h 82% 0.3 mm -RA
14:20 14.5 °C 11.3 °C 1012.1 hPa SSE 9.3 km/h 9.3 km/h 81% 0.3 mm -RA
14:25 14.5 °C 11.4 °C 1012.1 hPa SSE 5.6 km/h 5.6 km/h 82% 0.5 mm -RA
14:30 14.4 °C 11.6 °C 1012.1 hPa South 5.6 km/h 5.6 km/h 83% 0.5 mm -RA
14:35 14.3 °C 11.5 °C 1012.1 hPa SSW 11.1 km/h 11.1 km/h 83% 0.5 mm -RA
14:40 14.2 °C 11.6 °C 1012.1 hPa SSW 3.7 km/h 3.9 km/h 84% 0.5 mm -RA
14:45 14.1 °C 11.6 °C 1012.1 hPa South 11.1 km/h 11.1 km/h 85% 0.5 mm -RA
14:50 13.9 °C 11.6 °C 1012.1 hPa South 7.4 km/h 7.4 km/h 86% 0.8 mm -RA
14:56 13.7 °C 11.6 °C 1012.1 hPa SSE 13.0 km/h 13.0 km/h 87% 1.0 mm -RA
15:01 13.5 °C 11.6 °C 1012.1 hPa SSW 13.0 km/h 13.0 km/h 88% 1.3 mm -RA
15:06 13.4 °C 11.6 °C 1012.1 hPa South 7.4 km/h 7.4 km/h 89% 1.3 mm -RA
15:11 13.3 °C 11.6 °C 1012.4 hPa SSW 5.6 km/h 5.6 km/h 89% 1.5 mm -RA
15:16 13.2 °C 11.6 °C 1012.1 hPa South 9.3 km/h 9.3 km/h 90% 1.8 mm -RA
15:21 13.2 °C 11.6 °C 1012.1 hPa South 11.1 km/h 11.1 km/h 90% 1.8 mm -RA
15:26 13.1 °C 11.7 °C 1012.1 hPa SSE 8.0 km/h 8.0 km/h 91% 1.5 mm -RA
15:31 13.0 °C 11.6 °C 1012.1 hPa SE 7.4 km/h 7.4 km/h 91% 1.5 mm -RA
15:36 13.0 °C 11.7 °C 1012.1 hPa SE 5.6 km/h 5.6 km/h 92% 1.5 mm -RA
15:41 12.9 °C 11.7 °C 1012.1 hPa SE 6.4 km/h 6.4 km/h 92% 1.5 mm -RA
15:46 12.9 °C 11.6 °C 1012.1 hPa SE 6.4 km/h 6.4 km/h 92% 1.5 mm -RA
15:51 12.7 °C 11.4 °C 1012.1 hPa SE 5.6 km/h 5.6 km/h 92% 1.3 mm -RA
15:56 12.6 °C 11.3 °C 1012.1 hPa SE 7.4 km/h 7.4 km/h 92% 1.3 mm -RA
16:02 12.5 °C 11.4 °C 1012.1 hPa South 8.0 km/h 8.0 km/h 93% 0.8 mm -RA
16:07 12.5 °C 11.4 °C 1012.1 hPa SE 5.6 km/h 5.6 km/h 93% 0.8 mm -RA
16:12 12.4 °C 11.3 °C 1011.7 hPa SE 7.4 km/h 7.4 km/h 93% 0.5 mm -RA
16:17 12.4 °C 11.3 °C 1011.7 hPa SSE 5.6 km/h 5.6 km/h 93% 0.5 mm -RA
16:22 12.3 °C 11.4 °C 1012.1 hPa SE 14.8 km/h 14.8 km/h 94% 0.5 mm -RA
16:27 12.2 °C 11.3 °C 1012.1 hPa SE 7.4 km/h 7.4 km/h 94% 0.5 mm -RA
16:37 12.2 °C 11.3 °C 1011.7 hPa SSE 7.4 km/h 7.4 km/h 94% 0.3 mm -RA
16:42 12.2 °C 11.3 °C 1011.7 hPa ESE 5.6 km/h 5.6 km/h 94% 0.3 mm -RA
16:47 12.2 °C 11.3 °C 1011.7 hPa SE 5.6 km/h 5.6 km/h 94% 0.0 mm -RA
16:52 12.3 °C 11.3 °C 1011.7 hPa SSE 7.4 km/h 7.4 km/h 94% 0.0 mm -RA
16:57 12.3 °C 11.3 °C 1011.7 hPa SE 7.4 km/h 7.4 km/h 94% 0.0 mm -RA
17:02 12.3 °C 11.3 °C 1011.7 hPa SE 5.6 km/h 5.6 km/h 94% 0.0 mm -RA
17:07 12.3 °C 11.6 °C 1011.7 hPa SSE 9.3 km/h 9.3 km/h 95% 0.0 mm -RA
17:12 12.3 °C 11.6 °C 1011.4 hPa SSE 7.4 km/h 7.4 km/h 95% 0.0 mm -RA
17:17 12.3 °C 11.6 °C 1011.4 hPa SSE 9.3 km/h 9.3 km/h 95% 0.0 mm -RA
17:22 12.4 °C 11.6 °C 1011.7 hPa SE 11.1 km/h 11.1 km/h 95% 0.0 mm -RA
17:27 12.3 °C 11.6 °C 1011.7 hPa SSE 5.6 km/h 5.6 km/h 95% 0.0 mm -RA
17:32 12.4 °C 11.6 °C 1011.7 hPa SSE 5.6 km/h 5.6 km/h 95% 0.0 mm -RA
17:37 12.4 °C 11.6 °C 1011.7 hPa SSE 6.4 km/h 6.4 km/h 95% 0.0 mm -RA
17:42 12.4 °C 11.6 °C 1011.4 hPa ESE 9.3 km/h 9.3 km/h 95% 0.0 mm -RA
17:47 12.4 °C 11.6 °C 1011.4 hPa SSE 9.7 km/h 9.7 km/h 95% 0.0 mm -RA
17:52 12.4 °C 11.7 °C 1011.4 hPa SSE 5.6 km/h 5.6 km/h 95% 0.0 mm -RA
17:57 12.4 °C 11.6 °C 1011.4 hPa SSE 11.1 km/h 11.1 km/h 95% 0.0 mm -RA
18:07 12.4 °C 11.6 °C 1011.4 hPa SE 5.6 km/h 5.6 km/h 95% 0.0 mm -RA
18:12 12.4 °C 11.6 °C 1011.4 hPa South 14.8 km/h 14.8 km/h 95% 0.0 mm -RA
18:17 12.4 °C 11.6 °C 1011.4 hPa SSE 7.4 km/h 7.4 km/h 95% 0.0 mm -RA
18:22 12.4 °C 11.6 °C 1011.4 hPa SSE 13.0 km/h 13.0 km/h 95% 0.0 mm -RA
18:27 12.3 °C 11.6 °C 1011.4 hPa SE 13.0 km/h 13.0 km/h 95% 0.0 mm -RA
18:32 12.3 °C 11.6 °C 1011.4 hPa SSE 9.3 km/h 9.3 km/h 95% 0.0 mm -RA
18:37 12.4 °C 11.6 °C 1011.4 hPa South 16.7 km/h 16.7 km/h 95% 0.0 mm -RA
18:42 12.4 °C 11.6 °C 1011.4 hPa SSE 9.7 km/h 9.7 km/h 95% 0.0 mm -RA
18:47 12.4 °C 11.6 °C 1011.4 hPa SE 9.3 km/h 9.3 km/h 95% 0.0 mm -RA
18:52 12.4 °C 11.6 °C 1011.4 hPa SE 8.0 km/h 8.0 km/h 95% 0.0 mm -RA
18:57 12.4 °C 11.6 °C 1011.4 hPa SSE 9.3 km/h 9.3 km/h 95% 0.0 mm -RA
19:02 12.4 °C 11.6 °C 1011.4 hPa SE 11.1 km/h 11.1 km/h 95% 0.0 mm -RA
19:12 12.4 °C 11.7 °C 1011.4 hPa SSE 11.1 km/h 11.1 km/h 95% 0.0 mm -RA
19:17 12.4 °C 11.7 °C 1011.4 hPa SE 6.4 km/h 6.4 km/h 95% 0.0 mm -RA
19:22 12.4 °C 11.7 °C 1011.4 hPa SSE 3.7 km/h 3.7 km/h 95% 0.0 mm -RA
19:27 12.4 °C 11.7 °C 1011.4 hPa SE 7.4 km/h 7.4 km/h 95% 0.0 mm -RA
19:32 12.5 °C 11.7 °C 1011.4 hPa SSE 14.8 km/h 14.8 km/h 95% 0.0 mm -RA
19:35 12.5 °C 11.7 °C 1011.1 hPa SE 9.3 km/h 9.3 km/h 95% 0.0 mm -RA
19:40 12.5 °C 11.7 °C 1011.1 hPa ESE 8.0 km/h 8.0 km/h 95% 0.0 mm -RA
19:45 12.5 °C 11.7 °C 1011.1 hPa SE 11.1 km/h 11.1 km/h 95% 0.0 mm -RA
19:50 12.5 °C 11.7 °C 1011.1 hPa SE 11.1 km/h 11.1 km/h 95% 0.0 mm -RA
BSWETTER.DE
Compliments of Weather Underground - 2.75 mb
Besucherstatistik
Besucher gesamt: 869.971
Besucher heute: 1.008
Besucher gestern: 1.227
Besucher Ø : 1.025,98
gerade online: 19
max. online: 119
Seitenaufrufe heute: 2.702
Seitenaufrufe diese Seite: 1.897
Seitenaufrufe gesamt: 2.773.727
counter Statistiken